LZIB/BTS METAR and TAF weather

Enter ICAO airport designator
Station Type Date Time Source
LZIB METAR 2020/09/20 08:00 UTC NOAA

LZIB 200800Z 08008KT CAVOK 17/08 Q1019 NOSIG


Station Type Date Time Source
LZIB Decoded METAR 2020/09/20 08:00 UTC NOAA

Bratislava Ivanka, Slovakia (LZIB) 48-12N 017-12E 142M
Sep 20, 2020 - 04:00 AM EDT / 2020.09.20 0800 UTC
Wind: from the E (080 degrees) at 9 MPH (8 KT):0
Visibility: greater than 7 mile(s):0
Temperature: 62 F (17 C)
Dew Point: 46 F (8 C)
Relative Humidity: 55%
Pressure (altimeter): 30.09 in. Hg (1019 hPa)
ob: LZIB 200800Z 08008KT CAVOK 17/08 Q1019 NOSIG
cycle: 8

Station Type Date Time Source
LZIB TAF 2020/09/20 06:36 UTC NOAA

TAF LZIB 200500Z 2006/2106 06005KT CAVOK
TEMPO 2009/2015 13012KT

Example: see airport list